Preview of NWS' New Version of Forecast
This preview is not operational and should not be used for support decisions.

Terminal Aerodrome Forecast (TAF)

Issued by National Weather Service (NWS)

                            
000
FTUS43 KDMX 211405 AAA
TAFALO
TAF AMD
KALO 211405Z 2114/2212 19012G20KT P6SM OVC012
      TEMPO 2114/2116 4SM HZ
     FM220200 20012G18KT 6SM BR VCTS OVC015CB
     FM221000 26006KT P6SM OVC040=